Nearby METAR Reports

 

LGTS - THESALONIKI, GR
Distance from station: 85km
: 31/10/2020 13:50
Few Clouds
Few Clouds

: 24 km/h, : 43 km/h
: 22°C
: 10°C
: 47%
: 1019 hPa
Clouds: Few Clouds
Visibility: 10 km
Cloud details: Few Clouds 762 m
2020/10/31 11:50 LGTS 311150Z 30013G23KT 9999 FEW025 22/10 Q1019 NOSIG
LGAV - ATHENS, GR
Distance from station: 546km
: 31/10/2020 14:20


: 19 km/h
: 21°C
: 6°C
: 38%
: 1019 hPa
Clouds:
Visibility: 10 km
Cloud details: 1372 m
2020/10/31 12:20 LGAV 311220Z 31010KT 290V360 9999 SCT045 21/06 Q1019 NOSIG
 
LGKZ - KOZANI, GR
Distance from station: 130km
: 31/10/2020 13:50
Few Clouds
Few Clouds

: 7 km/h
: 19°C
: 1°C
: 30%
: 1021 hPa
Clouds: Few Clouds
Visibility: 10 km
Cloud details: Few Clouds 2134 m
2020/10/31 11:50 LGKZ 311150Z 10004KT 9999 FEW070 19/01 Q1021
LGIO - IOANNINA, GR
Distance from station: 265km
: 31/10/2020 13:50

   varies
: varies 4 km/h
: 19°C
: 8°C
: 49%
: 1021 hPa
:
Visibility: greater than 10 km
2020/10/31 11:50 LGIO 311150Z VRB02KT CAVOK 19/08 Q1021
 
LGKV - KABALA, GR
Distance from station: 220km
: 31/10/2020 14:20
Few Clouds
Few Clouds

: 19 km/h
: 20°C
: 7°C
: 43%
: 1018 hPa
Clouds: Few Clouds
Visibility: 10 km
Cloud details: Few Clouds 610 m
2020/10/31 12:20 LGKV 311220Z 22010KT 9999 FEW020 20/07 Q1018
LGAL - ALEXANDROUPOLI, GR
Distance from station: 367km
: 31/10/2020 14:20
Few Clouds
Few Clouds

: 15 km/h
: 18°C
: 7°C
: 49%
: 1019 hPa
Clouds: Few Clouds
Visibility: 10 km
Cloud details: Few Clouds 914 m
2020/10/31 12:20 LGAL 311220Z 21008KT 9999 FEW030 18/07 Q1019
 
LGSA - CHANIA,CRETE, GR
Distance from station: 866km
: 31/10/2020 14:20
Few Clouds
Few Clouds

: 15 km/h
: 20°C
: 14°C
: 69%
: 1019 hPa
Clouds: Few Clouds
Visibility: 10 km
Cloud details: Few Clouds 610 m
2020/10/31 12:20 LGSA 311220Z 05008KT 9999 FEW020 20/14 Q1019
LGIR - HERAKLIO, CRETE, GR
Distance from station: 882km
: 31/10/2020 14:20


: 19 km/h
: 21°C
: 13°C
: 60%
: 1018 hPa
Clouds:
Visibility: 10 km
Cloud details: Few Clouds 610 m
914 m
2020/10/31 12:20 LGIR 311220Z 35010KT 9999 FEW020 SCT030 21/13 Q1018 NOSIG
 
LGRP - RHODES, GR
Distance from station: 1.318km
: 31/10/2020 13:50
Few Clouds
Few Clouds

: 26 km/h
: 24°C
: 14°C
: 54%
: 1014 hPa
Clouds: Few Clouds
Visibility: 10 km
Cloud details: Few Clouds 549 m
2020/10/31 11:50 LGRP 311150Z 31014KT 9999 FEW018 24/14 Q1014 NOSIG
LGLR - LARISSA, GR
Distance from station: 182km
: 31/10/2020 13:50
Few Clouds
Few Clouds

: 7 km/h
: 21°C
: 7°C
: 40%
: 1020 hPa
Clouds: Few Clouds
Visibility: 10 km
Cloud details: Few Clouds 2438 m
2020/10/31 11:50 LGLR 311150Z 24004KT 9999 FEW080 21/07 Q1020 BLU